createdAt,value
2022-09-17T00:01:27.241Z,14.38
2022-09-17T00:03:57.464Z,14.45
2022-09-17T00:06:27.110Z,14.28
2022-09-17T00:08:55.444Z,14.12
2022-09-17T00:11:25.609Z,14.18
2022-09-17T00:13:54.944Z,14.17
2022-09-17T00:16:28.108Z,14.34
2022-09-17T00:18:56.778Z,14.24
2022-09-17T00:21:25.400Z,14.29
2022-09-17T00:23:57.935Z,14.28
2022-09-17T00:26:26.208Z,14.55
2022-09-17T00:28:55.585Z,14.36
2022-09-17T00:31:26.005Z,14.57
2022-09-17T00:33:54.451Z,14.53
2022-09-17T00:36:23.216Z,14.56
2022-09-17T00:38:52.249Z,14.58
2022-09-17T00:41:20.491Z,14.33
2022-09-17T00:43:50.946Z,14.47
2022-09-17T00:46:34.307Z,14.38
2022-09-17T00:49:08.538Z,14.49
2022-09-17T00:51:40.481Z,14.55
2022-09-17T00:54:11.789Z,14.35
2022-09-17T00:56:43.517Z,14.43
2022-09-17T00:59:11.782Z,14.32
2022-09-17T01:01:41.033Z,14.34
2022-09-17T01:04:17.245Z,14.47
2022-09-17T01:06:55.499Z,14.49
2022-09-17T01:09:35.224Z,14.46
2022-09-17T01:12:18.957Z,14.49
2022-09-17T01:14:52.010Z,14.65
2022-09-17T01:17:30.566Z,14.53
2022-09-17T01:20:37.154Z,14.66
2022-09-17T01:23:31.445Z,14.61
2022-09-17T01:26:22.103Z,14.62
2022-09-17T01:28:57.977Z,14.87
2022-09-17T01:31:41.416Z,14.71
2022-09-17T01:34:19.287Z,14.52
2022-09-17T01:36:58.208Z,14.49
2022-09-17T01:39:35.449Z,14.51
2022-09-17T01:42:14.500Z,14.56
2022-09-17T01:44:52.348Z,14.64
2022-09-17T01:47:24.993Z,14.61
2022-09-17T01:49:56.684Z,14.71
2022-09-17T01:52:27.856Z,14.68
2022-09-17T01:55:01.852Z,14.67
2022-09-17T01:57:34.774Z,14.78
2022-09-17T02:00:06.056Z,14.59
2022-09-17T02:02:45.352Z,14.71
2022-09-17T02:05:17.316Z,14.81
2022-09-17T02:07:49.072Z,14.43
2022-09-17T02:10:20.533Z,14.69
2022-09-17T02:12:56.232Z,14.78
2022-09-17T02:15:28.651Z,14.85
2022-09-17T02:18:04.774Z,14.74
2022-09-17T02:20:40.271Z,14.92
2022-09-17T02:23:13.742Z,14.77
2022-09-17T02:25:46.837Z,14.65
2022-09-17T02:28:21.341Z,14.85
2022-09-17T02:30:49.387Z,14.73
2022-09-17T02:33:19.956Z,14.77
2022-09-17T02:35:48.494Z,14.88
2022-09-17T02:38:23.280Z,14.62
2022-09-17T02:40:55.843Z,14.69
2022-09-17T02:43:31.723Z,14.79
2022-09-17T02:46:16.482Z,14.82
2022-09-17T02:49:11.267Z,14.82
2022-09-17T02:51:50.120Z,14.75
2022-09-17T02:54:25.716Z,14.79
2022-09-17T02:57:01.550Z,14.72
2022-09-17T02:59:35.258Z,14.91
2022-09-17T03:02:08.934Z,14.87
2022-09-17T03:04:40.363Z,14.77
2022-09-17T03:07:10.121Z,14.82
2022-09-17T03:09:38.080Z,14.71
2022-09-17T03:12:06.425Z,14.75
2022-09-17T03:14:34.335Z,14.61
2022-09-17T03:17:02.637Z,14.70
2022-09-17T03:19:30.529Z,14.69
2022-09-17T03:21:59.811Z,14.85
2022-09-17T03:24:28.165Z,14.82
2022-09-17T03:26:56.031Z,15.00
2022-09-17T03:29:23.935Z,14.77
2022-09-17T03:31:51.821Z,14.82
2022-09-17T03:34:20.998Z,14.76
2022-09-17T03:36:48.875Z,14.85
2022-09-17T03:39:18.143Z,14.81
2022-09-17T03:41:46.033Z,14.96
2022-09-17T03:44:15.381Z,14.75
2022-09-17T03:46:43.325Z,14.91
2022-09-17T03:49:11.247Z,15.09
2022-09-17T03:51:39.154Z,14.84
2022-09-17T03:54:07.240Z,14.96
2022-09-17T03:56:36.538Z,15.02
2022-09-17T03:59:04.660Z,15.07
2022-09-17T04:01:32.609Z,14.87
2022-09-17T04:04:00.684Z,14.96
2022-09-17T04:06:28.658Z,14.84
2022-09-17T04:08:56.902Z,14.91
2022-09-17T04:11:24.788Z,14.91
2022-09-17T04:13:54.245Z,14.92
2022-09-17T04:16:22.255Z,15.00
2022-09-17T04:18:50.179Z,15.13
2022-09-17T04:21:18.078Z,14.97
2022-09-17T04:23:45.981Z,14.90
2022-09-17T04:26:14.545Z,15.08
2022-09-17T04:28:42.433Z,15.01
2022-09-17T04:31:11.794Z,14.91
2022-09-17T04:33:39.724Z,15.00
2022-09-17T04:36:07.713Z,15.01
2022-09-17T04:38:35.639Z,14.97
2022-09-17T04:41:03.512Z,15.03
2022-09-17T04:43:31.396Z,15.00
2022-09-17T04:45:59.270Z,15.10
2022-09-17T04:48:28.516Z,14.97
2022-09-17T04:50:56.412Z,15.14
2022-09-17T04:53:24.273Z,14.96
2022-09-17T04:55:52.168Z,15.07
2022-09-17T04:58:20.063Z,15.14
2022-09-17T05:00:48.027Z,15.17
2022-09-17T05:03:15.912Z,15.06
2022-09-17T05:05:45.190Z,15.14
2022-09-17T05:08:13.070Z,15.12
2022-09-17T05:10:41.099Z,15.22
2022-09-17T05:13:08.963Z,15.27
2022-09-17T05:15:36.827Z,15.07
2022-09-17T05:18:05.062Z,15.21
2022-09-17T05:20:32.929Z,15.06
2022-09-17T05:23:02.183Z,15.04
2022-09-17T05:25:30.971Z,15.09
2022-09-17T05:28:00.672Z,15.34
2022-09-17T05:30:28.557Z,15.34
2022-09-17T05:33:03.431Z,15.56
2022-09-17T05:35:31.985Z,15.45
2022-09-17T05:38:02.822Z,15.48
2022-09-17T05:40:32.793Z,15.46
2022-09-17T05:43:01.816Z,15.20
2022-09-17T05:45:30.572Z,15.32
2022-09-17T05:48:00.029Z,15.72
2022-09-17T05:50:29.153Z,16.47
2022-09-17T05:52:57.181Z,16.49
2022-09-17T05:55:27.799Z,16.41
2022-09-17T05:57:55.779Z,16.36
2022-09-17T06:00:23.668Z,16.69
2022-09-17T06:02:56.154Z,16.72
2022-09-17T06:05:24.101Z,16.59
2022-09-17T06:07:52.589Z,16.16
2022-09-17T06:10:20.883Z,15.76
2022-09-17T06:12:50.134Z,15.65
2022-09-17T06:15:18.371Z,15.56
2022-09-17T06:17:46.286Z,15.73
2022-09-17T06:20:15.775Z,15.56
2022-09-17T06:22:43.685Z,15.42
2022-09-17T06:25:12.008Z,15.35
2022-09-17T06:27:40.127Z,15.47
2022-09-17T06:30:10.058Z,15.73
2022-09-17T06:32:37.994Z,15.50
2022-09-17T06:35:06.549Z,15.46
2022-09-17T06:37:36.300Z,15.44
2022-09-17T06:40:04.654Z,15.86
2022-09-17T06:42:32.637Z,15.45
2022-09-17T06:45:05.537Z,15.49
2022-09-17T06:47:37.440Z,15.21
2022-09-17T06:50:05.988Z,15.28
2022-09-17T06:52:34.146Z,15.69
2022-09-17T06:55:02.081Z,15.62
2022-09-17T06:57:29.968Z,15.41
2022-09-17T06:59:57.849Z,15.37
2022-09-17T07:02:25.902Z,15.43
2022-09-17T07:04:55.381Z,15.58
2022-09-17T07:07:23.274Z,15.41
2022-09-17T07:09:51.211Z,15.60
2022-09-17T07:12:19.200Z,15.57
2022-09-17T07:14:47.909Z,15.48
2022-09-17T07:17:16.240Z,15.75
2022-09-17T07:19:44.145Z,15.69
2022-09-17T07:22:14.056Z,15.89
2022-09-17T07:24:41.942Z,15.93
2022-09-17T07:27:09.835Z,15.90
2022-09-17T07:29:37.772Z,15.82
2022-09-17T07:32:05.838Z,15.99
2022-09-17T07:34:33.851Z,15.79
2022-09-17T07:37:01.729Z,15.77
2022-09-17T07:39:31.130Z,15.72
2022-09-17T07:41:58.987Z,16.14
2022-09-17T07:44:27.009Z,16.13
2022-09-17T07:46:54.955Z,16.42
2022-09-17T07:49:23.056Z,16.26
2022-09-17T07:51:50.954Z,16.15
2022-09-17T07:54:18.945Z,16.20
2022-09-17T07:56:48.264Z,16.23
2022-09-17T07:59:16.149Z,16.13
2022-09-17T08:01:44.168Z,16.14
2022-09-17T08:04:12.137Z,16.08
2022-09-17T08:06:41.041Z,16.27
2022-09-17T08:09:10.788Z,16.06
2022-09-17T08:11:54.972Z,16.41
2022-09-17T08:14:29.435Z,16.44
2022-09-17T08:16:58.177Z,16.59
2022-09-17T08:19:26.109Z,16.72
2022-09-17T08:21:54.069Z,16.56
2022-09-17T08:24:22.048Z,16.26
2022-09-17T08:26:49.951Z,16.60
2022-09-17T08:29:17.809Z,17.06
2022-09-17T08:31:47.190Z,16.93
2022-09-17T08:34:15.250Z,16.79
2022-09-17T08:36:43.105Z,16.81
2022-09-17T08:39:12.200Z,16.68
2022-09-17T08:42:06.603Z,16.70
2022-09-17T08:44:41.461Z,16.77
2022-09-17T08:47:21.776Z,16.86
2022-09-17T08:49:53.835Z,16.58
2022-09-17T08:52:49.907Z,16.89
2022-09-17T08:55:35.009Z,16.72
2022-09-17T08:58:32.117Z,16.89
2022-09-17T09:01:12.396Z,16.84
2022-09-17T09:03:59.671Z,16.98
2022-09-17T09:06:33.946Z,16.90
2022-09-17T09:09:06.575Z,16.83
2022-09-17T09:11:35.570Z,16.60
2022-09-17T09:14:12.435Z,16.67
2022-09-17T09:16:45.163Z,16.90
2022-09-17T09:19:22.275Z,17.03
2022-09-17T09:22:02.905Z,16.94
2022-09-17T09:24:39.319Z,17.14
2022-09-17T09:27:17.688Z,17.08
2022-09-17T09:29:58.721Z,17.09
2022-09-17T09:32:42.671Z,17.19
2022-09-17T09:35:19.697Z,17.68
2022-09-17T09:37:55.184Z,17.46
2022-09-17T09:40:44.230Z,17.18
2022-09-17T09:43:20.927Z,17.05
2022-09-17T09:46:03.755Z,16.86
2022-09-17T09:48:39.657Z,16.58
2022-09-17T09:51:23.236Z,16.05
2022-09-17T09:53:57.949Z,16.38
2022-09-17T09:56:50.456Z,16.10
2022-09-17T09:59:20.201Z,16.25
2022-09-17T10:01:48.543Z,16.74
2022-09-17T10:04:19.919Z,16.67
2022-09-17T10:06:51.528Z,17.59
2022-09-17T10:09:22.192Z,17.98
2022-09-17T10:12:17.904Z,17.92
2022-09-17T10:14:47.179Z,17.66
2022-09-17T10:17:21.550Z,18.56
2022-09-17T10:20:20.714Z,18.56
2022-09-17T10:22:52.451Z,19.17
2022-09-17T10:25:28.588Z,18.68
2022-09-17T10:27:57.438Z,18.38
2022-09-17T10:30:26.025Z,17.98
2022-09-17T10:33:18.804Z,17.23
2022-09-17T10:35:58.488Z,17.46
2022-09-17T10:38:35.747Z,16.78
2022-09-17T10:41:22.706Z,16.85
2022-09-17T10:43:51.168Z,17.24
2022-09-17T10:46:27.604Z,17.54
2022-09-17T10:49:10.277Z,17.50
2022-09-17T10:51:39.303Z,17.76
2022-09-17T10:54:42.801Z,17.67
2022-09-17T10:57:21.828Z,18.19
2022-09-17T11:00:07.891Z,17.66
2022-09-17T11:03:13.248Z,17.48
2022-09-17T11:06:14.487Z,17.91
2022-09-17T11:08:53.590Z,18.12
2022-09-17T11:11:35.548Z,19.35
2022-09-17T11:14:16.594Z,19.28
2022-09-17T11:16:54.973Z,19.12
2022-09-17T11:19:33.885Z,18.80
2022-09-17T11:22:10.977Z,18.89
2022-09-17T11:24:54.658Z,18.55
2022-09-17T11:27:38.769Z,18.77
2022-09-17T11:30:15.967Z,19.54
2022-09-17T11:33:05.669Z,19.43
2022-09-17T11:35:36.371Z,18.94
2022-09-17T11:38:08.079Z,18.60
2022-09-17T11:40:42.130Z,18.89
2022-09-17T11:43:20.610Z,19.13
2022-09-17T11:45:58.959Z,18.72
2022-09-17T11:48:35.025Z,19.49
2022-09-17T11:51:11.857Z,19.05
2022-09-17T11:53:45.203Z,18.90
2022-09-17T11:56:16.915Z,19.21
2022-09-17T11:58:52.113Z,19.88
2022-09-17T12:01:27.574Z,19.31
2022-09-17T12:04:01.061Z,19.36
2022-09-17T12:06:39.690Z,19.02
2022-09-17T12:09:14.377Z,18.96
2022-09-17T12:11:48.307Z,18.91
2022-09-17T12:14:24.796Z,18.87
2022-09-17T12:16:57.938Z,18.50
2022-09-17T12:19:33.649Z,18.28
2022-09-17T12:22:08.718Z,18.16
2022-09-17T12:24:36.942Z,18.28
2022-09-17T12:27:14.326Z,17.99
2022-09-17T12:30:04.173Z,17.85
2022-09-17T12:32:56.763Z,18.14
2022-09-17T12:36:03.027Z,18.40
2022-09-17T12:39:10.024Z,18.77
2022-09-17T12:41:49.060Z,18.76
2022-09-17T12:44:42.207Z,18.91
2022-09-17T12:47:30.155Z,19.25
2022-09-17T12:50:12.078Z,19.23
2022-09-17T12:52:58.118Z,19.19
2022-09-17T12:55:45.584Z,18.55
2022-09-17T12:58:28.941Z,18.68
2022-09-17T13:01:03.545Z,18.47
2022-09-17T13:03:38.746Z,18.36
2022-09-17T13:06:36.219Z,18.11
2022-09-17T13:09:41.854Z,18.42
2022-09-17T13:12:22.652Z,18.31
2022-09-17T13:18:20.347Z,18.16
2022-09-17T13:21:04.295Z,18.39
2022-09-17T13:23:40.367Z,18.62
2022-09-17T13:26:09.825Z,18.65
2022-09-17T13:28:46.890Z,18.75
2022-09-17T13:31:21.526Z,18.84
2022-09-17T13:33:54.383Z,18.49
2022-09-17T13:36:42.319Z,18.36
2022-09-17T13:39:12.437Z,18.38
2022-09-17T13:41:42.976Z,18.42
2022-09-17T13:44:12.626Z,18.63
2022-09-17T13:46:41.218Z,18.34
2022-09-17T13:49:16.351Z,18.49
2022-09-17T13:51:51.204Z,18.63
2022-09-17T13:54:22.370Z,18.48
2022-09-17T13:57:07.051Z,18.56
2022-09-17T13:59:37.156Z,18.67
2022-09-17T14:02:35.294Z,18.42
2022-09-17T14:05:29.192Z,18.18
2022-09-17T14:08:12.065Z,18.25
2022-09-17T14:10:45.086Z,18.10
2022-09-17T14:13:29.789Z,18.55
2022-09-17T14:16:05.387Z,18.38
2022-09-17T14:18:44.557Z,18.28
2022-09-17T14:21:17.841Z,18.19
2022-09-17T14:23:48.380Z,18.12
2022-09-17T14:26:27.173Z,17.92
2022-09-17T14:29:03.369Z,18.03
2022-09-17T14:31:35.344Z,17.61
2022-09-17T14:34:06.064Z,17.51
2022-09-17T14:36:38.773Z,17.36
2022-09-17T14:39:16.402Z,17.30
2022-09-17T14:41:45.791Z,17.17
2022-09-17T14:44:16.545Z,17.14
2022-09-17T14:46:52.464Z,17.41
2022-09-17T14:49:23.710Z,17.74
2022-09-17T14:51:51.877Z,17.63
2022-09-17T14:54:24.803Z,17.68
2022-09-17T14:57:01.424Z,17.28
2022-09-17T14:59:43.288Z,17.57
2022-09-17T15:02:30.282Z,17.45
2022-09-17T15:04:58.654Z,17.39
2022-09-17T15:07:27.540Z,17.50
2022-09-17T15:10:07.682Z,17.33
2022-09-17T15:12:36.519Z,17.32
2022-09-17T15:15:04.883Z,17.11
2022-09-17T15:17:34.094Z,17.03
2022-09-17T15:20:07.892Z,17.11
2022-09-17T15:22:40.042Z,17.05
2022-09-17T15:25:16.281Z,17.05
2022-09-17T15:27:47.114Z,16.89
2022-09-17T15:30:19.228Z,16.81
2022-09-17T15:32:51.236Z,17.13
2022-09-17T15:35:30.496Z,16.94
2022-09-17T15:38:21.642Z,16.98
2022-09-17T15:40:49.673Z,16.77
2022-09-17T15:43:22.885Z,16.78
2022-09-17T15:45:50.836Z,16.80
2022-09-17T15:48:41.469Z,16.40
2022-09-17T15:51:25.652Z,16.54
2022-09-17T15:53:55.131Z,16.46
2022-09-17T15:56:27.567Z,16.44
2022-09-17T15:58:59.456Z,16.41
2022-09-17T16:01:51.989Z,16.44
2022-09-17T16:04:25.282Z,16.03
2022-09-17T16:06:58.824Z,15.96
2022-09-17T16:09:42.249Z,16.05
2022-09-17T16:12:14.358Z,15.82
2022-09-17T16:14:50.590Z,15.71
2022-09-17T16:17:43.602Z,15.77
2022-09-17T16:20:17.606Z,15.60
2022-09-17T16:22:47.928Z,15.52
2022-09-17T16:25:16.475Z,15.62
2022-09-17T16:27:49.976Z,15.25
2022-09-17T16:30:20.035Z,15.42
2022-09-17T16:32:48.319Z,15.41
2022-09-17T16:35:18.231Z,15.15
2022-09-17T16:37:49.099Z,15.24
2022-09-17T16:40:17.521Z,15.48
2022-09-17T16:42:47.776Z,15.40
2022-09-17T16:45:15.978Z,15.33
2022-09-17T16:47:44.849Z,15.56
2022-09-17T16:50:15.009Z,15.31
2022-09-17T16:52:43.954Z,15.48
2022-09-17T16:55:13.550Z,15.41
2022-09-17T16:57:41.643Z,15.27
2022-09-17T17:00:14.434Z,15.48
2022-09-17T17:02:42.327Z,15.41
2022-09-17T17:05:11.510Z,15.52
2022-09-17T17:07:39.377Z,15.49
2022-09-17T17:10:09.057Z,15.50
2022-09-17T17:12:37.196Z,15.51
2022-09-17T17:15:07.072Z,15.58
2022-09-17T17:17:36.721Z,15.41
2022-09-17T17:20:06.957Z,15.34
2022-09-17T17:22:34.838Z,15.37
2022-09-17T17:25:03.018Z,15.28
2022-09-17T17:27:30.968Z,15.17
2022-09-17T17:29:59.064Z,15.05
2022-09-17T17:32:26.997Z,14.93
2022-09-17T17:34:56.258Z,15.16
2022-09-17T17:37:24.311Z,15.26
2022-09-17T17:39:52.219Z,15.47
2022-09-17T17:42:20.173Z,15.27
2022-09-17T17:44:48.477Z,15.38
2022-09-17T17:47:17.690Z,15.30
2022-09-17T17:49:45.575Z,15.35
2022-09-17T17:52:14.831Z,15.05
2022-09-17T17:54:42.735Z,14.97
2022-09-17T17:57:11.399Z,14.86
2022-09-17T17:59:39.247Z,14.71
2022-09-17T18:02:07.551Z,14.91
2022-09-17T18:04:35.506Z,14.91
2022-09-17T18:07:03.368Z,14.87
2022-09-17T18:09:32.652Z,14.99
2022-09-17T18:12:00.534Z,14.82
2022-09-17T18:14:28.477Z,14.71
2022-09-17T18:16:56.349Z,14.79
2022-09-17T18:19:24.239Z,14.72
2022-09-17T18:21:52.119Z,14.59
2022-09-17T18:24:20.077Z,14.57
2022-09-17T18:26:49.628Z,14.51
2022-09-17T18:29:17.565Z,14.45
2022-09-17T18:31:45.887Z,14.64
2022-09-17T18:34:15.892Z,14.49
2022-09-17T18:36:50.797Z,14.49
2022-09-17T18:42:10.444Z,14.26
2022-09-17T18:44:38.324Z,14.41
2022-09-17T18:47:06.510Z,14.42
2022-09-17T18:49:34.384Z,14.46
2022-09-17T18:52:02.546Z,14.47
2022-09-17T18:54:30.438Z,14.48
2022-09-17T18:56:58.340Z,14.44
2022-09-17T18:59:27.600Z,14.23
2022-09-17T19:01:55.600Z,14.51
2022-09-17T19:04:23.510Z,14.30
2022-09-17T19:06:51.382Z,14.21
2022-09-17T19:09:19.829Z,14.33
2022-09-17T19:11:47.684Z,14.23
2022-09-17T19:14:15.560Z,14.45
2022-09-17T19:16:44.801Z,14.44
2022-09-17T19:19:12.798Z,14.20
2022-09-17T19:21:40.660Z,14.25
2022-09-17T19:24:09.189Z,14.19
2022-09-17T19:26:37.070Z,14.22
2022-09-17T19:29:06.129Z,14.28
2022-09-17T19:31:34.093Z,14.26
2022-09-17T19:34:03.540Z,14.36
2022-09-17T19:36:31.579Z,14.40
2022-09-17T19:38:59.573Z,14.51
2022-09-17T19:41:27.487Z,14.40
2022-09-17T19:43:56.877Z,14.42
2022-09-17T19:46:26.348Z,14.50
2022-09-17T19:48:56.557Z,14.34
2022-09-17T19:51:28.297Z,14.37
2022-09-17T19:53:56.757Z,14.33
2022-09-17T19:56:26.451Z,14.37
2022-09-17T19:58:54.653Z,14.30
2022-09-17T20:01:22.894Z,14.32
2022-09-17T20:03:50.766Z,14.37
2022-09-17T20:06:20.745Z,14.20
2022-09-17T20:08:51.904Z,14.43
2022-09-17T20:11:21.867Z,14.26
2022-09-17T20:13:50.066Z,14.44
2022-09-17T20:16:20.234Z,14.30
2022-09-17T20:18:48.427Z,14.47
2022-09-17T20:21:18.534Z,14.48
2022-09-17T20:23:46.565Z,14.38
2022-09-17T20:26:16.551Z,14.28
2022-09-17T20:28:45.309Z,14.40
2022-09-17T20:31:15.609Z,14.35
2022-09-17T20:33:44.043Z,14.38
2022-09-17T20:36:15.080Z,14.27
2022-09-17T20:41:34.296Z,14.40
2022-09-17T20:44:02.391Z,14.17
2022-09-17T20:46:30.310Z,14.42
2022-09-17T20:48:58.796Z,14.45
2022-09-17T20:51:28.491Z,14.62
2022-09-17T20:53:57.881Z,14.62
2022-09-17T20:56:27.728Z,14.54
2022-09-17T20:59:08.579Z,14.58
2022-09-17T21:01:38.038Z,14.40
2022-09-17T21:04:07.939Z,14.51
2022-09-17T21:06:37.739Z,14.45
2022-09-17T21:09:07.357Z,14.23
2022-09-17T21:11:35.881Z,14.36
2022-09-17T21:14:05.778Z,14.52
2022-09-17T21:16:33.888Z,14.61
2022-09-17T21:19:03.180Z,14.39
2022-09-17T21:21:34.369Z,14.61
2022-09-17T21:24:03.404Z,14.61
2022-09-17T21:26:32.366Z,14.40
2022-09-17T21:29:00.467Z,14.53
2022-09-17T21:31:32.971Z,14.43
2022-09-17T21:34:03.158Z,14.57
2022-09-17T21:36:32.864Z,14.30
2022-09-17T21:39:02.512Z,14.44
2022-09-17T21:41:31.035Z,14.56
2022-09-17T21:43:59.187Z,14.37
2022-09-17T21:46:29.980Z,14.28
2022-09-17T21:49:00.042Z,14.30
2022-09-17T21:51:30.594Z,14.15
2022-09-17T21:54:00.506Z,14.35
2022-09-17T21:56:29.640Z,14.28
2022-09-17T21:58:59.754Z,14.35
2022-09-17T22:01:32.034Z,14.47
2022-09-17T22:04:02.113Z,14.52
2022-09-17T22:06:32.243Z,14.34
2022-09-17T22:09:02.210Z,14.33
2022-09-17T22:11:31.908Z,14.30
2022-09-17T22:14:04.877Z,14.32
2022-09-17T22:16:36.002Z,14.33
2022-09-17T22:19:04.948Z,14.24
2022-09-17T22:21:34.550Z,14.33
2022-09-17T22:24:03.638Z,14.34
2022-09-17T22:26:33.972Z,14.50
2022-09-17T22:29:02.914Z,14.47
2022-09-17T22:31:31.188Z,14.38
2022-09-17T22:34:00.747Z,14.44
2022-09-17T22:36:29.439Z,14.62
2022-09-17T22:38:59.340Z,14.56
2022-09-17T22:41:28.872Z,14.67
2022-09-17T22:43:58.346Z,14.37
2022-09-17T22:46:28.535Z,14.42
2022-09-17T22:48:56.910Z,14.45
2022-09-17T22:51:27.797Z,14.65
2022-09-17T22:53:56.180Z,14.65
2022-09-17T22:56:25.184Z,14.54
2022-09-17T22:58:53.142Z,14.76
2022-09-17T23:01:24.083Z,14.39
2022-09-17T23:03:53.074Z,14.57
2022-09-17T23:06:28.908Z,14.57
2022-09-17T23:08:57.360Z,14.65
2022-09-17T23:11:26.933Z,14.52
2022-09-17T23:13:58.453Z,14.47
2022-09-17T23:16:26.483Z,14.52
2022-09-17T23:18:54.392Z,14.50
2022-09-17T23:21:22.669Z,14.46
2022-09-17T23:23:52.471Z,14.57
2022-09-17T23:26:22.484Z,14.63
2022-09-17T23:28:50.983Z,14.63
2022-09-17T23:31:20.889Z,14.61
2022-09-17T23:33:52.089Z,14.44
2022-09-17T23:36:22.182Z,14.75
2022-09-17T23:38:52.362Z,14.70
2022-09-17T23:41:22.485Z,14.62
2022-09-17T23:43:51.891Z,14.46
2022-09-17T23:46:20.871Z,14.33
2022-09-17T23:48:49.554Z,14.38
2022-09-17T23:51:17.521Z,14.40
2022-09-17T23:53:45.538Z,14.39
2022-09-17T23:56:17.950Z,14.35
2022-09-17T23:58:46.470Z,14.09
